Atlanta, Georgia
Traffic Map
Current Weather Conditions
Atlanta, Georgia
Broken Clouds
Broken Clouds
80°
Feels Like: 84°
Wind Chill: 80° Ceiling: 3000
Heat Index: 84° Visibility: 10mi
Dew Point: 71° Wind: 8mph
Humidity: 74% Direction: 280° (W)
Pressure: 30.04in Gusts: 0mph
Raw Report DataKATL 191752Z 28007KT 10SM SCT021 BKN030 BKN100 27/22 A3004 RMK AO2 RAB18E27 SLP161 P0000 60000 T02670217 10278 20228 58003
Traffic Incident Summary
Active as of:
Severity:
Category:
InformationThere was an issue retrieving the traffic information for this location. Please try a different location or try again shortly.
Advertisements